createdAt,value
2017-11-03T00:01:07.924Z,68.17
2017-11-03T00:03:43.016Z,68.21
2017-11-03T00:06:17.915Z,67.87
2017-11-03T00:08:52.327Z,67.48
2017-11-03T00:11:26.855Z,67.19
2017-11-03T00:14:01.944Z,67.14
2017-11-03T00:16:37.023Z,67.74
2017-11-03T00:19:11.440Z,68.24
2017-11-03T00:21:46.007Z,68.63
2017-11-03T00:24:20.471Z,69.27
2017-11-03T00:26:55.463Z,69.06
2017-11-03T00:29:30.551Z,68.59
2017-11-03T00:32:05.631Z,68.59
2017-11-03T00:34:40.032Z,69.44
2017-11-03T00:37:14.827Z,69.35
2017-11-03T00:39:50.053Z,69.00
2017-11-03T00:42:25.152Z,69.29
2017-11-03T00:45:00.168Z,69.58
2017-11-03T00:47:35.324Z,70.02
2017-11-03T00:50:10.342Z,70.33
2017-11-03T00:52:45.860Z,70.83
2017-11-03T00:55:20.728Z,70.36
2017-11-03T00:57:55.740Z,69.27
2017-11-03T01:00:30.187Z,69.85
2017-11-03T01:03:05.504Z,71.00
2017-11-03T01:05:40.714Z,72.12
2017-11-03T01:08:15.675Z,73.19
2017-11-03T01:10:50.032Z,74.36
2017-11-03T01:13:25.447Z,75.59
2017-11-03T01:15:59.923Z,76.85
2017-11-03T01:18:34.813Z,77.60
2017-11-03T01:21:09.860Z,78.13
2017-11-03T01:23:45.107Z,78.70
2017-11-03T01:26:19.852Z,79.21
2017-11-03T01:28:54.984Z,80.27
2017-11-03T01:31:30.268Z,81.01
2017-11-03T01:34:05.625Z,81.56
2017-11-03T01:36:40.688Z,82.21
2017-11-03T01:39:15.897Z,82.85
2017-11-03T01:41:50.933Z,83.76
2017-11-03T01:44:26.035Z,84.96
2017-11-03T01:47:00.428Z,85.69
2017-11-03T01:49:35.920Z,87.21
2017-11-03T01:52:10.448Z,87.88
2017-11-03T01:54:45.908Z,88.58
2017-11-03T01:57:20.563Z,89.44
2017-11-03T01:59:55.292Z,89.87
2017-11-03T02:02:30.388Z,90.23
2017-11-03T02:05:05.125Z,90.43
2017-11-03T02:07:39.647Z,90.60
2017-11-03T02:10:14.879Z,90.92
2017-11-03T02:12:50.271Z,91.26
2017-11-03T02:15:24.702Z,91.54
2017-11-03T02:18:00.084Z,91.84
2017-11-03T02:20:35.052Z,92.09
2017-11-03T02:23:09.333Z,92.23
2017-11-03T02:25:43.818Z,92.45
2017-11-03T02:28:18.921Z,92.61
2017-11-03T02:30:53.731Z,92.74
2017-11-03T02:33:28.658Z,92.96
2017-11-03T02:36:04.004Z,93.17
2017-11-03T02:38:38.628Z,93.42
2017-11-03T02:41:12.796Z,93.68
2017-11-03T02:43:47.636Z,93.80
2017-11-03T02:46:23.036Z,93.96
2017-11-03T02:48:58.292Z,94.05
2017-11-03T02:51:33.655Z,94.20
2017-11-03T02:54:08.719Z,94.47
2017-11-03T02:56:43.719Z,94.63
2017-11-03T02:59:18.880Z,94.50
2017-11-03T03:01:53.796Z,94.52
2017-11-03T03:04:28.908Z,94.54
2017-11-03T03:07:04.237Z,94.82
2017-11-03T03:09:39.176Z,94.97
2017-11-03T03:12:14.328Z,95.27
2017-11-03T03:14:49.176Z,95.54
2017-11-03T03:17:23.607Z,95.75
2017-11-03T03:19:59.320Z,95.99
2017-11-03T03:22:33.973Z,96.21
2017-11-03T03:25:08.644Z,96.35
2017-11-03T03:27:42.990Z,96.44
2017-11-03T03:30:17.781Z,96.48
2017-11-03T03:32:52.636Z,96.68
2017-11-03T03:35:28.095Z,96.70
2017-11-03T03:38:02.866Z,96.74
2017-11-03T03:40:38.317Z,96.83
2017-11-03T03:43:12.672Z,96.77
2017-11-03T03:45:47.291Z,96.51
2017-11-03T03:48:21.924Z,96.39
2017-11-03T03:50:56.268Z,96.27
2017-11-03T03:53:30.463Z,96.40
2017-11-03T03:56:04.852Z,96.51
2017-11-03T03:58:40.080Z,96.55
2017-11-03T04:01:14.545Z,96.73
2017-11-03T04:03:50.119Z,96.79
2017-11-03T04:06:25.115Z,97.11
2017-11-03T04:08:59.991Z,97.22
2017-11-03T04:11:35.330Z,97.36
2017-11-03T04:14:10.444Z,97.40
2017-11-03T04:16:45.596Z,97.47
2017-11-03T04:19:20.460Z,97.74
2017-11-03T04:21:55.867Z,98.07
2017-11-03T04:24:31.204Z,98.51
2017-11-03T04:27:06.001Z,98.87
2017-11-03T04:29:40.668Z,99.20
2017-11-03T04:32:15.481Z,99.45
2017-11-03T04:34:49.618Z,99.48
2017-11-03T04:37:24.900Z,99.35
2017-11-03T04:39:59.716Z,99.27
2017-11-03T04:42:33.780Z,99.00
2017-11-03T04:45:09.103Z,98.98
2017-11-03T04:47:44.056Z,99.02
2017-11-03T04:50:18.616Z,99.02
2017-11-03T04:52:53.969Z,99.10
2017-11-03T04:55:28.746Z,99.36
2017-11-03T04:58:03.936Z,99.61
2017-11-03T05:00:39.409Z,99.77
2017-11-03T05:03:14.104Z,99.75
2017-11-03T05:05:49.147Z,99.52
2017-11-03T05:08:24.271Z,99.38
2017-11-03T05:10:59.672Z,99.34
2017-11-03T05:13:34.415Z,99.23
2017-11-03T05:16:09.680Z,99.27
2017-11-03T05:18:44.783Z,99.29
2017-11-03T05:21:19.884Z,99.43
2017-11-03T05:23:54.911Z,99.46
2017-11-03T05:26:30.044Z,99.39
2017-11-03T05:29:04.996Z,99.39
2017-11-03T05:31:39.511Z,99.45
2017-11-03T05:34:14.439Z,99.62
2017-11-03T05:36:49.111Z,99.64
2017-11-03T05:39:23.711Z,99.46
2017-11-03T05:41:58.404Z,99.31
2017-11-03T05:44:33.700Z,99.27
2017-11-03T05:47:08.181Z,99.19
2017-11-03T05:49:43.186Z,99.02
2017-11-03T05:52:18.215Z,99.01
2017-11-03T05:54:53.319Z,98.95
2017-11-03T05:57:28.036Z,99.09
2017-11-03T06:00:03.112Z,99.09
2017-11-03T06:02:37.865Z,99.11
2017-11-03T06:05:13.136Z,98.98
2017-11-03T06:07:48.271Z,98.80
2017-11-03T06:10:25.260Z,98.97
2017-11-03T06:13:00.872Z,99.07
2017-11-03T06:15:35.307Z,99.26
2017-11-03T06:18:10.024Z,99.22
2017-11-03T06:20:45.460Z,99.16
2017-11-03T06:23:20.338Z,98.98
2017-11-03T06:25:55.483Z,99.29
2017-11-03T06:28:30.069Z,99.66
2017-11-03T06:31:04.832Z,99.63
2017-11-03T06:33:40.171Z,99.60
2017-11-03T06:36:15.360Z,99.80
2017-11-03T06:38:49.595Z,100.00
2017-11-03T06:41:24.548Z,100.00
2017-11-03T06:43:58.868Z,100.00
2017-11-03T06:46:33.811Z,100.00
2017-11-03T06:49:07.916Z,100.00
2017-11-03T06:51:42.380Z,100.00
2017-11-03T06:54:17.152Z,100.00
2017-11-03T06:56:52.176Z,100.00
2017-11-03T06:59:26.444Z,100.00
2017-11-03T07:02:00.952Z,100.00
2017-11-03T07:04:36.336Z,100.00
2017-11-03T07:07:10.795Z,100.00
2017-11-03T07:09:45.287Z,100.00
2017-11-03T07:12:20.971Z,100.00
2017-11-03T07:14:55.379Z,100.00
2017-11-03T07:17:30.775Z,100.00
2017-11-03T07:20:05.543Z,100.00
2017-11-03T07:22:40.309Z,100.00
2017-11-03T07:25:15.240Z,100.00
2017-11-03T07:27:50.700Z,100.00
2017-11-03T07:30:25.963Z,100.00
2017-11-03T07:33:01.288Z,100.00
2017-11-03T07:35:35.981Z,100.00
2017-11-03T07:38:11.351Z,100.00
2017-11-03T07:40:45.949Z,100.00
2017-11-03T07:43:20.724Z,100.00
2017-11-03T07:45:55.264Z,100.00
2017-11-03T07:48:30.405Z,100.00
2017-11-03T07:51:04.879Z,100.00
2017-11-03T07:53:39.463Z,100.00
2017-11-03T07:56:14.748Z,99.96
2017-11-03T07:58:50.124Z,99.57
2017-11-03T08:01:24.839Z,99.55
2017-11-03T08:03:59.999Z,99.31
2017-11-03T08:06:34.521Z,99.22
2017-11-03T08:09:09.644Z,99.11
2017-11-03T08:11:44.786Z,99.00
2017-11-03T08:14:19.308Z,98.91
2017-11-03T08:16:53.828Z,98.83
2017-11-03T08:19:27.792Z,98.96
2017-11-03T08:22:03.072Z,98.96
2017-11-03T08:24:37.829Z,98.89
2017-11-03T08:27:13.143Z,98.77
2017-11-03T08:29:48.463Z,98.77
2017-11-03T08:32:23.785Z,98.72
2017-11-03T08:34:58.588Z,98.71
2017-11-03T08:37:33.274Z,98.83
2017-11-03T08:40:08.760Z,99.01
2017-11-03T08:42:43.968Z,99.08
2017-11-03T08:45:18.521Z,98.98
2017-11-03T08:47:53.392Z,98.87
2017-11-03T08:50:28.131Z,98.82
2017-11-03T08:53:02.512Z,98.60
2017-11-03T08:55:37.516Z,98.65
2017-11-03T08:58:13.228Z,99.15
2017-11-03T09:00:48.504Z,99.63
2017-11-03T09:03:23.271Z,99.95
2017-11-03T09:05:58.088Z,100.00
2017-11-03T09:08:33.429Z,99.97
2017-11-03T09:11:08.143Z,100.00
2017-11-03T09:13:43.379Z,100.00
2017-11-03T09:16:18.343Z,100.00
2017-11-03T09:18:53.043Z,100.00
2017-11-03T09:21:28.035Z,99.49
2017-11-03T09:24:02.916Z,99.26
2017-11-03T09:26:37.852Z,99.20
2017-11-03T09:29:12.900Z,99.11
2017-11-03T09:31:47.532Z,99.36
2017-11-03T09:34:22.585Z,99.65
2017-11-03T09:36:57.620Z,99.88
2017-11-03T09:39:31.699Z,100.00
2017-11-03T09:42:06.127Z,99.84
2017-11-03T09:44:40.294Z,99.87
2017-11-03T09:47:14.724Z,99.88
2017-11-03T09:49:49.036Z,99.92
2017-11-03T09:52:24.294Z,99.99
2017-11-03T09:54:59.299Z,100.00
2017-11-03T09:57:34.320Z,99.53
2017-11-03T10:00:09.640Z,99.42
2017-11-03T10:02:44.039Z,99.10
2017-11-03T10:05:18.847Z,98.49
2017-11-03T10:07:53.706Z,98.50
2017-11-03T10:10:28.215Z,98.38
2017-11-03T10:13:02.328Z,98.09
2017-11-03T10:15:37.416Z,97.44
2017-11-03T10:18:11.832Z,96.88
2017-11-03T10:20:46.583Z,96.03
2017-11-03T10:23:21.360Z,96.16
2017-11-03T10:25:55.946Z,95.45
2017-11-03T10:28:30.994Z,95.47
2017-11-03T10:31:06.808Z,95.16
2017-11-03T10:33:41.495Z,94.07
2017-11-03T10:36:15.904Z,92.71
2017-11-03T10:38:51.273Z,92.46
2017-11-03T10:41:25.995Z,92.62
2017-11-03T10:44:00.902Z,92.25
2017-11-03T10:46:35.001Z,91.66
2017-11-03T10:49:10.228Z,91.12
2017-11-03T10:51:44.920Z,90.85
2017-11-03T10:54:19.424Z,90.37
2017-11-03T10:56:53.964Z,90.20
2017-11-03T10:59:28.477Z,89.42
2017-11-03T11:02:02.824Z,88.06
2017-11-03T11:04:37.811Z,87.32
2017-11-03T11:07:12.516Z,87.99
2017-11-03T11:09:47.268Z,86.72
2017-11-03T11:12:22.661Z,86.08
2017-11-03T11:14:57.212Z,86.51
2017-11-03T11:17:32.600Z,86.07
2017-11-03T11:20:07.176Z,85.92
2017-11-03T11:22:42.571Z,85.84
2017-11-03T11:25:17.584Z,86.45
2017-11-03T11:27:52.736Z,86.75
2017-11-03T11:30:27.242Z,85.68
2017-11-03T11:33:02.056Z,85.96
2017-11-03T11:35:36.545Z,85.87
2017-11-03T11:38:11.025Z,85.34
2017-11-03T11:40:45.128Z,84.91
2017-11-03T11:43:19.896Z,85.49
2017-11-03T11:45:55.300Z,85.52
2017-11-03T11:48:30.249Z,85.37
2017-11-03T11:51:04.243Z,85.20
2017-11-03T11:53:39.028Z,85.24
2017-11-03T11:56:13.613Z,85.39
2017-11-03T11:58:48.474Z,85.29
2017-11-03T12:01:23.327Z,85.56
2017-11-03T12:03:58.192Z,85.35
2017-11-03T12:06:33.255Z,85.81
2017-11-03T12:09:07.413Z,86.06
2017-11-03T12:11:42.463Z,86.15
2017-11-03T12:14:17.443Z,85.74
2017-11-03T12:16:52.379Z,85.96
2017-11-03T12:19:27.656Z,85.08
2017-11-03T12:22:02.096Z,83.61
2017-11-03T12:24:37.024Z,83.98
2017-11-03T12:27:12.008Z,84.83
2017-11-03T12:29:47.116Z,84.89
2017-11-03T12:32:21.980Z,84.90
2017-11-03T12:34:57.032Z,84.76
2017-11-03T12:37:32.016Z,83.90
2017-11-03T12:40:06.920Z,83.75
2017-11-03T12:42:41.565Z,83.32
2017-11-03T12:45:16.324Z,83.24
2017-11-03T12:47:50.871Z,83.20
2017-11-03T12:50:24.979Z,83.58
2017-11-03T12:52:59.760Z,83.83
2017-11-03T12:55:34.736Z,83.10
2017-11-03T12:58:08.841Z,83.42
2017-11-03T13:00:43.893Z,83.84
2017-11-03T13:03:18.065Z,83.57
2017-11-03T13:05:52.488Z,83.69
2017-11-03T13:08:27.455Z,84.02
2017-11-03T13:11:01.562Z,84.17
2017-11-03T13:13:36.392Z,84.40
2017-11-03T13:16:11.534Z,84.79
2017-11-03T13:18:46.759Z,85.06
2017-11-03T13:21:21.179Z,85.10
2017-11-03T13:23:55.596Z,84.82
2017-11-03T13:26:29.736Z,84.59
2017-11-03T13:29:03.730Z,84.49
2017-11-03T13:31:38.138Z,83.71
2017-11-03T13:34:13.101Z,84.19
2017-11-03T13:36:47.405Z,84.38
2017-11-03T13:39:22.441Z,83.94
2017-11-03T13:41:57.195Z,84.22
2017-11-03T13:44:32.213Z,83.77
2017-11-03T13:47:07.056Z,83.63
2017-11-03T13:49:41.324Z,83.46
2017-11-03T13:52:16.192Z,83.56
2017-11-03T13:54:51.491Z,83.54
2017-11-03T13:57:25.563Z,84.09
2017-11-03T14:00:00.618Z,84.28
2017-11-03T14:02:35.649Z,84.43
2017-11-03T14:05:10.063Z,84.73
2017-11-03T14:07:45.597Z,85.37
2017-11-03T14:10:20.344Z,86.05
2017-11-03T14:12:55.279Z,86.08
2017-11-03T14:15:30.340Z,86.14
2017-11-03T14:18:05.764Z,86.01
2017-11-03T14:20:40.808Z,86.51
2017-11-03T14:23:16.079Z,86.28
2017-11-03T14:25:51.172Z,86.37
2017-11-03T14:28:26.083Z,86.34
2017-11-03T14:31:00.823Z,86.06
2017-11-03T14:33:35.956Z,86.41
2017-11-03T14:36:11.036Z,86.66
2017-11-03T14:38:46.227Z,86.77
2017-11-03T14:41:20.637Z,87.41
2017-11-03T14:43:55.627Z,87.56
2017-11-03T14:46:30.275Z,87.70
2017-11-03T14:49:05.280Z,87.76
2017-11-03T14:51:40.097Z,87.55
2017-11-03T14:54:14.936Z,87.56
2017-11-03T14:56:50.271Z,87.23
2017-11-03T14:59:25.284Z,86.58
2017-11-03T15:02:00.459Z,86.08
2017-11-03T15:04:34.945Z,86.52
2017-11-03T15:07:10.199Z,86.71
2017-11-03T15:09:45.600Z,86.99
2017-11-03T15:12:20.492Z,87.25
2017-11-03T15:14:55.416Z,87.66
2017-11-03T15:17:30.584Z,87.85
2017-11-03T15:20:05.265Z,87.97
2017-11-03T15:22:39.952Z,87.94
2017-11-03T15:25:14.775Z,87.75
2017-11-03T15:27:49.639Z,87.91
2017-11-03T15:30:23.959Z,88.21
2017-11-03T15:33:00.300Z,88.36
2017-11-03T15:35:34.902Z,88.47
2017-11-03T15:38:09.707Z,88.37
2017-11-03T15:40:44.289Z,88.50
2017-11-03T15:43:18.884Z,88.63
2017-11-03T15:45:54.032Z,88.94
2017-11-03T15:48:29.044Z,88.83
2017-11-03T15:51:03.644Z,88.70
2017-11-03T15:53:39.086Z,88.56
2017-11-03T15:56:14.636Z,88.49
2017-11-03T15:58:49.368Z,88.04
2017-11-03T16:01:24.291Z,87.92
2017-11-03T16:03:59.263Z,87.96
2017-11-03T16:06:34.672Z,87.41
2017-11-03T16:09:09.751Z,86.86
2017-11-03T16:11:44.331Z,86.79
2017-11-03T16:14:19.589Z,86.84
2017-11-03T16:16:54.845Z,87.14
2017-11-03T16:19:30.091Z,87.26
2017-11-03T16:22:04.708Z,87.17
2017-11-03T16:24:38.992Z,87.42
2017-11-03T16:27:14.271Z,87.56
2017-11-03T16:29:49.632Z,87.68
2017-11-03T16:32:24.955Z,87.99
2017-11-03T16:35:00.000Z,88.21
2017-11-03T16:37:35.265Z,88.16
2017-11-03T16:40:10.250Z,88.20
2017-11-03T16:42:45.271Z,88.09
2017-11-03T16:45:20.008Z,87.86
2017-11-03T16:47:54.292Z,87.52
2017-11-03T16:50:28.699Z,87.38
2017-11-03T16:53:03.191Z,87.47
2017-11-03T16:55:38.008Z,87.83
2017-11-03T16:58:13.237Z,87.99
2017-11-03T17:00:48.148Z,87.91
2017-11-03T17:03:23.379Z,88.04
2017-11-03T17:05:58.384Z,87.97
2017-11-03T17:08:33.188Z,87.90
2017-11-03T17:11:07.508Z,87.84
2017-11-03T17:13:41.975Z,87.97
2017-11-03T17:16:17.119Z,88.20
2017-11-03T17:18:52.293Z,88.36
2017-11-03T17:21:27.684Z,88.67
2017-11-03T17:24:02.595Z,88.85
2017-11-03T17:26:37.168Z,88.99
2017-11-03T17:29:12.038Z,89.35
2017-11-03T17:31:47.028Z,89.65
2017-11-03T17:34:22.051Z,89.83
2017-11-03T17:36:57.072Z,90.00
2017-11-03T17:39:32.415Z,90.08
2017-11-03T17:42:07.083Z,90.15
2017-11-03T17:44:41.407Z,90.20
2017-11-03T17:47:16.497Z,90.34
2017-11-03T17:49:52.124Z,90.40
2017-11-03T17:52:26.755Z,90.56
2017-11-03T17:55:01.636Z,90.68
2017-11-03T17:57:36.951Z,90.64
2017-11-03T18:00:11.743Z,90.60
2017-11-03T18:02:45.872Z,90.58
2017-11-03T18:05:20.496Z,90.53
2017-11-03T18:07:55.332Z,90.49
2017-11-03T18:10:30.055Z,90.82
2017-11-03T18:13:05.068Z,91.30
2017-11-03T18:15:39.476Z,91.67
2017-11-03T18:18:14.264Z,92.18
2017-11-03T18:20:49.686Z,92.30
2017-11-03T18:23:25.076Z,92.45
2017-11-03T18:26:00.228Z,92.50
2017-11-03T18:28:34.700Z,92.64
2017-11-03T18:31:09.153Z,92.58
2017-11-03T18:33:43.528Z,92.48
2017-11-03T18:36:18.071Z,92.86
2017-11-03T18:38:52.944Z,93.26
2017-11-03T18:41:28.060Z,93.39
2017-11-03T18:44:03.366Z,93.47
2017-11-03T18:46:38.627Z,93.73
2017-11-03T18:49:13.799Z,93.78
2017-11-03T18:51:48.550Z,93.55
2017-11-03T18:54:23.215Z,93.40
2017-11-03T18:56:58.175Z,93.49
2017-11-03T18:59:33.313Z,93.57
2017-11-03T19:02:18.143Z,93.80
2017-11-03T19:04:53.031Z,93.89
2017-11-03T19:07:27.670Z,94.16
2017-11-03T19:10:02.739Z,94.29
2017-11-03T19:12:37.528Z,94.34
2017-11-03T19:15:12.348Z,94.50
2017-11-03T19:17:47.566Z,94.71
2017-11-03T19:20:22.180Z,94.63
2017-11-03T19:22:57.119Z,94.61
2017-11-03T19:25:31.912Z,94.72
2017-11-03T19:28:07.392Z,94.79
2017-11-03T19:30:42.463Z,94.73
2017-11-03T19:33:17.631Z,94.72
2017-11-03T19:35:52.628Z,94.72
2017-11-03T19:38:27.577Z,94.84
2017-11-03T19:41:02.996Z,94.86
2017-11-03T19:43:38.361Z,94.73
2017-11-03T19:46:13.325Z,94.66
2017-11-03T19:48:48.440Z,94.70
2017-11-03T19:51:23.244Z,94.66
2017-11-03T19:53:58.558Z,94.67
2017-11-03T19:56:33.015Z,94.46
2017-11-03T19:59:08.276Z,93.83
2017-11-03T20:01:42.796Z,93.39
2017-11-03T20:04:17.616Z,93.23
2017-11-03T20:06:52.847Z,93.14
2017-11-03T20:09:27.951Z,93.10
2017-11-03T20:12:03.179Z,93.21
2017-11-03T20:14:37.992Z,93.32
2017-11-03T20:17:12.947Z,93.35
2017-11-03T20:19:47.508Z,93.30
2017-11-03T20:22:22.560Z,93.14
2017-11-03T20:24:57.540Z,93.12
2017-11-03T20:27:32.675Z,93.19
2017-11-03T20:30:07.931Z,93.15
2017-11-03T20:32:43.003Z,93.20
2017-11-03T20:35:18.245Z,93.28
2017-11-03T20:37:53.387Z,93.37
2017-11-03T20:40:28.048Z,93.29
2017-11-03T20:43:03.249Z,93.32
2017-11-03T20:45:38.579Z,93.54
2017-11-03T20:48:13.308Z,93.65
2017-11-03T20:50:48.564Z,93.64
2017-11-03T20:53:23.952Z,93.54
2017-11-03T20:55:58.939Z,93.48
2017-11-03T20:58:34.091Z,93.43
2017-11-03T21:01:09.176Z,93.26
2017-11-03T21:03:43.724Z,93.16
2017-11-03T21:06:18.900Z,93.35
2017-11-03T21:08:54.032Z,93.63
2017-11-03T21:11:28.879Z,93.66
2017-11-03T21:14:03.362Z,93.65
2017-11-03T21:16:38.695Z,93.69
2017-11-03T21:19:13.644Z,93.76
2017-11-03T21:21:48.779Z,93.85
2017-11-03T21:24:23.499Z,93.93
2017-11-03T21:26:58.352Z,94.02
2017-11-03T21:29:33.227Z,94.13
2017-11-03T21:32:08.089Z,94.25
2017-11-03T21:34:43.136Z,94.30
2017-11-03T21:37:17.580Z,94.39
2017-11-03T21:39:52.068Z,94.50
2017-11-03T21:42:27.129Z,94.70
2017-11-03T21:45:01.952Z,94.72
2017-11-03T21:47:36.664Z,94.75
2017-11-03T21:50:11.684Z,94.94
2017-11-03T21:52:46.763Z,95.20
2017-11-03T21:55:21.668Z,95.54
2017-11-03T21:57:56.820Z,95.83
2017-11-03T22:00:32.044Z,96.21
2017-11-03T22:03:06.578Z,96.52
2017-11-03T22:05:41.798Z,96.76
2017-11-03T22:08:17.036Z,96.94
2017-11-03T22:10:52.232Z,97.12
2017-11-03T22:13:27.268Z,97.31
2017-11-03T22:16:01.670Z,97.32
2017-11-03T22:18:36.873Z,97.27
2017-11-03T22:21:11.499Z,97.12
2017-11-03T22:23:46.225Z,96.90
2017-11-03T22:26:21.272Z,96.70
2017-11-03T22:28:55.787Z,96.63
2017-11-03T22:31:30.599Z,96.67
2017-11-03T22:34:04.644Z,96.69
2017-11-03T22:36:39.712Z,96.86
2017-11-03T22:39:14.723Z,97.01
2017-11-03T22:41:49.871Z,97.15
2017-11-03T22:44:25.212Z,97.11
2017-11-03T22:47:00.620Z,96.97
2017-11-03T22:49:36.075Z,96.82
2017-11-03T22:52:10.450Z,96.63
2017-11-03T22:54:45.567Z,96.46
2017-11-03T22:57:20.910Z,96.23
2017-11-03T22:59:56.032Z,96.14
2017-11-03T23:02:30.460Z,96.01
2017-11-03T23:05:05.868Z,95.74
2017-11-03T23:07:40.740Z,95.26
2017-11-03T23:10:16.068Z,95.19
2017-11-03T23:12:51.224Z,95.48
2017-11-03T23:15:25.924Z,95.58
2017-11-03T23:18:00.685Z,95.53
2017-11-03T23:20:35.556Z,95.38
2017-11-03T23:23:10.210Z,95.20
2017-11-03T23:25:45.366Z,94.97
2017-11-03T23:28:20.636Z,94.85
2017-11-03T23:30:55.056Z,94.77
2017-11-03T23:33:30.152Z,94.76
2017-11-03T23:36:04.875Z,94.74
2017-11-03T23:38:40.036Z,94.62
2017-11-03T23:41:14.936Z,94.64
2017-11-03T23:43:50.011Z,94.64
2017-11-03T23:46:24.988Z,94.76
2017-11-03T23:48:59.953Z,94.81
2017-11-03T23:51:34.775Z,94.76
2017-11-03T23:54:09.780Z,94.68
2017-11-03T23:56:44.535Z,94.53
2017-11-03T23:59:19.808Z,94.56
